Time;durP1;ratioP1;P1;durP2;ratioP2;P2;SDS_P1;SDS_P2;PMS_P1;PMS_P2;Temp;Humidity;BMP_temperature;BMP_pressure;BME280_temperature;BME280_humidity;BME280_pressure;Samples;Min_cycle;Max_cycle;Signal;HPM_P1;HPM_P2
2021/07/07 00:02:12;;;;;;;;;4.25;3.00;;;;;-143.39;100.00;63593.47;4924330;28;45493;-85
2021/07/07 00:04:37;;;;;;;;;8.25;3.00;;;;;-143.39;100.00;63593.47;4922607;28;45616;-84
2021/07/07 00:07:03;;;;;;;;;3.50;1.75;;;;;-143.39;100.00;63593.47;4902048;28;45661;-81
2021/07/07 00:09:28;;;;;;;;;2.50;2.00;;;;;-143.39;100.00;63593.47;4920436;28;45554;-82
2021/07/07 00:11:54;;;;;;;;;3.00;3.00;;;;;-143.39;100.00;63593.47;4920621;28;45462;-83
2021/07/07 00:14:19;;;;;;;;;4.75;2.25;;;;;-143.39;100.00;63593.47;4902258;28;48106;-83
2021/07/07 00:16:45;;;;;;;;;4.00;2.00;;;;;-143.39;100.00;63593.47;4919200;28;45454;-83
2021/07/07 00:19:10;;;;;;;;;4.75;2.75;;;;;-143.39;100.00;63593.47;4918630;28;45506;-82
2021/07/07 00:21:35;;;;;;;;;3.00;3.00;;;;;-143.39;100.00;63593.47;4921702;28;45536;-80
2021/07/07 00:24:11;;;;;;;;;4.00;2.75;;;;;-143.39;100.00;63593.47;4921408;28;45438;-82
2021/07/07 00:26:44;;;;;;;;;4.00;3.00;;;;;-143.39;100.00;63593.47;4903677;28;46571;-82
2021/07/07 00:29:12;;;;;;;;;4.25;2.00;;;;;-143.39;100.00;63593.47;4924389;28;45540;-83
2021/07/07 00:31:45;;;;;;;;;3.75;2.75;;;;;-143.39;100.00;63593.47;4906119;28;45360;-83
2021/07/07 00:34:21;;;;;;;;;;;;;;;;;;;;;
2021/07/07 00:36:49;;;;;;;;;3.00;3.00;;;;;-143.39;100.00;63593.47;4917995;28;72206;-83
2021/07/07 00:39:28;;;;;;;;;3.75;2.00;;;;;-143.39;100.00;63593.47;4920610;28;45353;-83
2021/07/07 00:42:05;;;;;;;;;4.50;2.75;;;;;-143.39;100.00;63593.47;4906067;28;45541;-84
2021/07/07 00:44:37;;;;;;;;;4.00;3.00;;;;;-143.39;100.00;63593.47;4905708;28;48199;-84
2021/07/07 00:47:16;;;;;;;;;;;;;;;;;;;;;
2021/07/07 00:49:51;;;;;;;;;;;;;;;;;;;;;
2021/07/07 00:52:32;;;;;;;;;5.25;3.75;;;;;-143.39;100.00;63593.47;4922126;28;72957;-84
2021/07/07 00:55:02;;;;;;;;;2.75;2.00;;;;;-143.39;100.00;63593.47;4922496;28;46161;-84
2021/07/07 00:57:34;;;;;;;;;4.00;2.00;;;;;-143.39;100.00;63593.47;4904621;28;45344;-83
2021/07/07 01:00:12;;;;;;;;;8.00;3.25;;;;;-143.39;100.00;63593.47;4921909;28;45483;-84
2021/07/07 01:02:52;;;;;;;;;;;;;;;;;;;;;
2021/07/07 01:05:21;;;;;;;;;2.00;2.00;;;;;-143.39;100.00;63593.47;4921590;28;75430;-84
2021/07/07 01:07:56;;;;;;;;;4.25;3.50;;;;;-143.39;100.00;63593.47;4925426;28;45383;-83
2021/07/07 01:10:34;;;;;;;;;;;;;;;;;;;;;
2021/07/07 01:13:00;;;;;;;;;3.75;2.00;;;;;-143.39;100.00;63593.47;4911779;28;72823;-83
2021/07/07 01:15:36;;;;;;;;;;;;;;;;;;;;;
2021/07/07 01:18:07;;;;;;;;;5.00;3.00;;;;;-143.39;100.00;63593.47;4923093;28;72305;-84
2021/07/07 01:20:32;;;;;;;;;6.25;3.25;;;;;-143.39;100.00;63593.47;4926778;28;45350;-83
2021/07/07 01:23:11;;;;;;;;;4.25;3.00;;;;;-143.39;100.00;63593.47;4929627;28;45422;-84
2021/07/07 01:25:46;;;;;;;;;;;;;;;;;;;;;
2021/07/07 01:28:22;;;;;;;;;7.50;3.75;;;;;-143.39;100.00;63593.47;4916503;28;72443;-84
2021/07/07 01:30:47;;;;;;;;;3.00;3.00;;;;;-143.39;100.00;63593.47;4916662;28;45348;-84
2021/07/07 01:33:13;;;;;;;;;4.50;3.00;;;;;-143.39;100.00;63593.47;4925628;28;45244;-84
2021/07/07 01:35:39;;;;;;;;;7.25;3.00;;;;;-143.39;100.00;63593.47;4925360;28;45467;-84
2021/07/07 01:38:17;;;;;;;;;5.75;2.00;;;;;-143.39;100.00;63593.47;4924824;28;45559;-84
2021/07/07 01:40:42;;;;;;;;;3.25;2.75;;;;;-143.39;100.00;63593.47;4916658;28;45487;-84
2021/07/07 01:43:16;;;;;;;;;5.75;2.75;;;;;-143.39;100.00;63593.47;4907506;28;45546;-83
2021/07/07 01:45:44;;;;;;;;;2.00;1.50;;;;;-143.39;100.00;63593.47;4910210;28;47087;-84
2021/07/07 01:48:09;;;;;;;;;2.00;2.00;;;;;-143.39;100.00;63593.47;4926730;28;45157;-83
2021/07/07 01:50:35;;;;;;;;;5.50;2.75;;;;;-143.39;100.00;63593.47;4908515;28;45309;-84
2021/07/07 01:53:02;;;;;;;;;2.50;2.50;;;;;-143.39;100.00;63593.47;4907737;28;45492;-83
2021/07/07 01:55:30;;;;;;;;;5.50;3.00;;;;;-143.39;100.00;63593.47;4923637;28;46328;-83
2021/07/07 01:57:56;;;;;;;;;3.50;2.25;;;;;-143.39;100.00;63593.47;4906573;28;45463;-83
2021/07/07 02:00:34;;;;;;;;;2.75;2.00;;;;;-143.39;100.00;63593.47;4909473;28;45494;-83
2021/07/07 02:03:03;;;;;;;;;3.75;2.75;;;;;-143.39;100.00;63593.47;4927900;28;45259;-83
2021/07/07 02:05:32;;;;;;;;;4.50;3.75;;;;;-143.39;100.00;63593.47;4927714;28;45459;-84
2021/07/07 02:08:00;;;;;;;;;2.50;2.50;;;;;-143.39;100.00;63593.47;4908241;28;45337;-84
2021/07/07 02:10:36;;;;;;;;;3.50;2.50;;;;;-143.39;100.00;63593.47;4908365;28;45340;-84
2021/07/07 02:13:12;;;;;;;;;3.00;3.00;;;;;-143.39;100.00;63593.47;4923443;28;45172;-83
2021/07/07 02:15:38;;;;;;;;;2.75;2.75;;;;;-143.39;100.00;63593.47;4922721;28;47214;-83
2021/07/07 02:18:07;;;;;;;;;2.75;2.75;;;;;-143.39;100.00;63593.47;4906211;28;45655;-84
2021/07/07 02:20:41;;;;;;;;;7.25;4.50;;;;;-143.39;100.00;63593.47;4929972;28;45386;-83
2021/07/07 02:23:09;;;;;;;;;7.00;4.00;;;;;-143.39;100.00;63593.47;4910716;28;45589;-84
2021/07/07 02:25:50;;;;;;;;;;;;;;;;;;;;;
2021/07/07 02:28:26;;;;;;;;;2.00;2.00;;;;;-143.39;100.00;63593.47;4925263;28;72034;-84
2021/07/07 02:30:56;;;;;;;;;5.00;3.00;;;;;-143.39;100.00;63593.47;4924297;28;45469;-83
2021/07/07 02:33:24;;;;;;;;;3.75;3.50;;;;;-143.39;100.00;63593.47;4924005;28;45256;-84
2021/07/07 02:35:52;;;;;;;;;3.50;3.00;;;;;-143.39;100.00;63593.47;4922150;28;46159;-83
2021/07/07 02:38:33;;;;;;;;;;;;;;;;;;;;;
2021/07/07 02:41:01;;;;;;;;;3.25;3.25;;;;;-143.39;100.00;63593.47;4922606;28;67120;-83
2021/07/07 02:43:32;;;;;;;;;6.50;3.50;;;;;-143.39;100.00;63593.47;4908053;28;45457;-84
2021/07/07 02:46:07;;;;;;;;;7.00;3.50;;;;;-143.39;100.00;63593.47;4909608;28;46085;-84
2021/07/07 02:48:40;;;;;;;;;2.75;2.00;;;;;-143.39;100.00;63593.47;4908642;28;45337;-83
2021/07/07 02:51:13;;;;;;;;;2.50;2.50;;;;;-143.39;100.00;63593.47;4916596;28;45260;-83
2021/07/07 02:53:49;;;;;;;;;3.50;3.25;;;;;-143.39;100.00;63593.47;4912591;28;45307;-84
2021/07/07 02:56:16;;;;;;;;;5.00;3.50;;;;;-143.39;100.00;63593.47;4919137;28;45313;-84
2021/07/07 02:58:44;;;;;;;;;2.50;2.25;;;;;-143.39;100.00;63593.47;4917299;28;45605;-84
2021/07/07 03:01:14;;;;;;;;;3.50;2.25;;;;;-143.39;100.00;63593.47;4906883;28;45439;-83
2021/07/07 03:03:45;;;;;;;;;4.25;2.75;;;;;-143.39;100.00;63593.47;4922896;28;45444;-83
2021/07/07 03:06:20;;;;;;;;;5.50;4.25;;;;;-143.39;100.00;63593.47;4927199;28;45463;-83
2021/07/07 03:08:53;;;;;;;;;4.00;3.75;;;;;-143.39;100.00;63593.47;4926116;28;45378;-83
2021/07/07 03:11:21;;;;;;;;;4.75;4.25;;;;;-143.39;100.00;63593.47;4907591;28;45468;-84
2021/07/07 03:13:56;;;;;;;;;;;;;;;;;;;;;
2021/07/07 03:16:25;;;;;;;;;6.00;4.50;;;;;-143.39;100.00;63593.47;4918921;28;74552;-84
2021/07/07 03:18:53;;;;;;;;;3.50;3.00;;;;;-143.39;100.00;63593.47;4908406;28;45253;-84
2021/07/07 03:21:29;;;;;;;;;;;;;;;;;;;;;
2021/07/07 03:24:04;;;;;;;;;;;;;;;;;;;;;
2021/07/07 03:26:33;;;;;;;;;4.50;3.75;;;;;-143.39;100.00;63593.47;4925590;28;75409;-83
2021/07/07 03:28:58;;;;;;;;;4.75;3.00;;;;;-143.39;100.00;63593.47;4923546;28;45472;-83
2021/07/07 03:31:36;;;;;;;;;;;;;;;;;;;;;
2021/07/07 03:34:04;;;;;;;;;3.00;3.00;;;;;-143.39;100.00;63593.47;4923652;28;73337;-83
2021/07/07 03:36:47;;;;;;;;;5.25;4.00;;;;;-143.39;100.00;63593.47;4923045;28;46858;-83
2021/07/07 03:39:12;;;;;;;;;4.25;4.25;;;;;-143.39;100.00;63593.47;4906079;28;45502;-84
2021/07/07 03:41:48;;;;;;;;;;;;;;;;;;;;;
2021/07/07 03:44:26;;;;;;;;;;;;;;;;;;;;;
2021/07/07 03:46:54;;;;;;;;;5.00;3.00;;;;;-143.39;100.00;63593.47;4924463;28;75673;-84
2021/07/07 03:49:27;;;;;;;;;4.00;3.50;;;;;-143.39;100.00;63593.47;4925161;28;45481;-83
2021/07/07 03:51:52;;;;;;;;;6.25;4.00;;;;;-143.39;100.00;63593.47;4922017;28;45500;-84
2021/07/07 03:54:28;;;;;;;;;;;;;;;;;;;;;
2021/07/07 03:56:55;;;;;;;;;6.00;4.00;;;;;-143.39;100.00;63593.47;4912555;28;75700;-84
2021/07/07 03:59:32;;;;;;;;;4.50;3.50;;;;;-143.39;100.00;63593.47;4905691;28;45656;-84
2021/07/07 04:02:10;;;;;;;;;;;;;;;;;;;;;
2021/07/07 04:04:38;;;;;;;;;3.25;3.00;;;;;-143.39;100.00;63593.47;4919113;28;72968;-84
2021/07/07 04:07:12;;;;;;;;;5.75;4.50;;;;;-143.39;100.00;63593.47;4915238;28;47776;-84
2021/07/07 04:09:45;;;;;;;;;4.00;4.00;;;;;-143.39;100.00;63593.47;4906789;28;45287;-83
2021/07/07 04:12:23;;;;;;;;;4.25;4.25;;;;;-143.39;100.00;63593.47;4906677;28;45387;-83
2021/07/07 04:15:17;;;;;;;;;4.00;3.25;;;;;-143.39;100.00;63593.47;4914907;28;45317;-83
2021/07/07 04:17:48;;;;;;;;;5.00;3.00;;;;;-143.39;100.00;63593.47;4894715;28;46907;-84
2021/07/07 04:20:33;;;;;;;;;;;;;;;;;;;;;
2021/07/07 04:23:16;;;;;;;;;;;;;;;;;;;;;
2021/07/07 04:25:47;;;;;;;;;3.50;3.00;;;;;-143.39;100.00;63593.47;4921612;28;71925;-84
2021/07/07 04:28:27;;;;;;;;;;;;;;;;;;;;;
2021/07/07 04:31:03;;;;;;;;;6.50;5.00;;;;;-143.39;100.00;63593.47;4924538;28;71525;-84
2021/07/07 04:33:38;;;;;;;;;5.50;4.00;;;;;-143.39;100.00;63593.47;4923315;28;45320;-84
2021/07/07 04:36:13;;;;;;;;;;;;;;;;;;;;;
2021/07/07 04:38:41;;;;;;;;;5.75;2.75;;;;;-143.39;100.00;63593.47;4922983;28;75436;-84
2021/07/07 04:41:12;;;;;;;;;5.25;3.50;;;;;-143.39;100.00;63593.47;4898187;29;45455;-84
2021/07/07 04:43:41;;;;;;;;;3.75;3.00;;;;;-143.39;100.00;63593.47;4915257;28;45287;-84
2021/07/07 04:46:14;;;;;;;;;7.50;5.00;;;;;-143.39;100.00;63593.47;4924034;28;45361;-84
2021/07/07 04:48:39;;;;;;;;;7.25;3.50;;;;;-143.39;100.00;63593.47;4924846;28;45487;-84
2021/07/07 04:51:05;;;;;;;;;6.50;5.00;;;;;-143.39;100.00;63593.47;4908208;28;45350;-84
2021/07/07 04:53:31;;;;;;;;;4.00;4.00;;;;;-143.39;100.00;63593.47;4896478;28;45270;-83
2021/07/07 04:55:56;;;;;;;;;6.00;3.50;;;;;-143.39;100.00;63593.47;4900179;28;45484;-84
2021/07/07 04:58:25;;;;;;;;;5.00;5.00;;;;;-143.39;100.00;63593.47;4922213;28;45518;-84
2021/07/07 05:00:50;;;;;;;;;7.50;3.50;;;;;-143.39;100.00;63593.47;4921616;28;45449;-84
2021/07/07 05:03:16;;;;;;;;;5.00;3.25;;;;;-143.39;100.00;63593.47;4920761;28;45377;-84
2021/07/07 05:05:41;;;;;;;;;6.00;4.00;;;;;-143.39;100.00;63593.47;4920464;28;45777;-83
2021/07/07 05:08:07;;;;;;;;;4.50;4.25;;;;;-143.39;100.00;63593.47;4924044;28;45721;-84
2021/07/07 05:10:35;;;;;;;;;8.25;4.50;;;;;-143.39;100.00;63593.47;4909007;28;45431;-83
2021/07/07 05:13:09;;;;;;;;;4.00;4.00;;;;;-143.39;100.00;63593.47;4913901;28;45368;-84
2021/07/07 05:15:34;;;;;;;;;5.50;4.50;;;;;-143.39;100.00;63593.47;4906781;28;45508;-84
2021/07/07 05:18:13;;;;;;;;;;;;;;;;;;;;;
2021/07/07 05:21:01;;;;;;;;;12.25;10.00;;;;;-143.39;100.00;63593.47;4928295;28;71964;-84
2021/07/07 05:23:34;;;;;;;;;7.25;6.25;;;;;-143.39;100.00;63593.47;4919060;28;45242;-84
2021/07/07 05:26:04;;;;;;;;;6.50;4.00;;;;;-143.39;100.00;63593.47;4905251;28;45822;-84
2021/07/07 05:28:32;;;;;;;;;11.50;7.00;;;;;-143.39;100.00;63593.47;4935454;28;45505;-84
2021/07/07 05:31:06;;;;;;;;;7.00;6.25;;;;;-143.39;100.00;63593.47;4924219;28;45534;-84
2021/07/07 05:33:36;;;;;;;;;7.00;5.00;;;;;-143.39;100.00;63593.47;4906689;28;45463;-84
2021/07/07 05:36:10;;;;;;;;;10.00;6.00;;;;;-143.39;100.00;63593.47;4924079;28;45476;-84
2021/07/07 05:39:13;;;;;;;;;;;;;;;;;;;;;
2021/07/07 05:42:09;;;;;;;;;6.00;6.00;;;;;-143.39;100.00;63593.47;4921311;28;72894;-84
2021/07/07 05:48:16;;;;;;;;;;;;;;;;;;;;;
2021/07/07 05:54:23;;;;;;;;;;;;;;;;;;;;;
2021/07/07 05:57:25;;;;;;;;;5.25;3.75;;;;;-143.39;100.00;63593.47;4930219;28;68696;-85
2021/07/07 06:00:10;;;;;;;;;6.00;4.25;;;;;-143.39;100.00;63593.47;4908614;28;45295;-85
2021/07/07 06:02:39;;;;;;;;;7.25;4.25;;;;;-143.39;100.00;63593.47;4908663;28;47509;-83
2021/07/07 06:05:07;;;;;;;;;6.00;4.00;;;;;-143.39;100.00;63593.47;4925729;28;45342;-81
2021/07/07 06:07:33;;;;;;;;;6.50;5.00;;;;;-143.39;100.00;63593.47;4935383;28;45716;-82
2021/07/07 06:10:05;;;;;;;;;6.00;6.00;;;;;-143.39;100.00;63593.47;4931297;28;45560;-83
2021/07/07 06:12:30;;;;;;;;;7.00;4.75;;;;;-143.39;100.00;63593.47;4937845;28;45705;-82
2021/07/07 06:15:01;;;;;;;;;9.25;6.00;;;;;-143.39;100.00;63593.47;4933320;28;45320;-83
2021/07/07 06:17:27;;;;;;;;;5.75;5.00;;;;;-143.39;100.00;63593.47;4909550;28;45307;-82
2021/07/07 06:19:52;;;;;;;;;4.25;4.25;;;;;-143.39;100.00;63593.47;4908283;28;45710;-82
2021/07/07 06:22:18;;;;;;;;;7.00;5.25;;;;;-143.39;100.00;63593.47;4917846;28;47132;-80
2021/07/07 06:24:43;;;;;;;;;7.25;4.25;;;;;-143.39;100.00;63593.47;4929532;28;45609;-82
2021/07/07 06:27:09;;;;;;;;;4.75;4.00;;;;;-143.39;100.00;63593.47;4916224;28;45361;-81
2021/07/07 06:29:35;;;;;;;;;6.00;6.00;;;;;-143.39;100.00;63593.47;4925605;28;45674;-82
2021/07/07 06:32:01;;;;;;;;;5.00;5.00;;;;;-143.39;100.00;63593.47;4926574;28;45481;-82
2021/07/07 06:34:26;;;;;;;;;10.25;6.00;;;;;-143.39;100.00;63593.47;4926511;28;45347;-82
2021/07/07 06:36:52;;;;;;;;;5.00;4.00;;;;;-143.39;100.00;63593.47;4925090;28;45716;-83
2021/07/07 06:39:20;;;;;;;;;7.00;4.50;;;;;-143.39;100.00;63593.47;4926317;28;45427;-85
2021/07/07 06:41:48;;;;;;;;;5.00;5.00;;;;;-143.39;100.00;63593.47;4904353;28;46774;-86
2021/07/07 06:44:29;;;;;;;;;;;;;;;;;;;;;
2021/07/07 06:47:11;;;;;;;;;;;;;;;;;;;;;
2021/07/07 06:49:46;;;;;;;;;6.50;5.00;;;;;-143.39;100.00;63593.47;4905151;28;72140;-87
2021/07/07 06:52:23;;;;;;;;;5.00;5.00;;;;;-143.39;100.00;63593.47;4920006;28;48180;-86
2021/07/07 06:55:15;;;;;;;;;8.25;5.25;;;;;-143.39;100.00;63593.47;4929467;28;45442;-87
2021/07/07 06:57:41;;;;;;;;;6.50;6.50;;;;;-143.39;100.00;63593.47;4929273;28;44850;-86
2021/07/07 07:00:14;;;;;;;;;5.50;5.25;;;;;-143.39;100.00;63593.47;4932514;28;44701;-85
2021/07/07 07:02:43;;;;;;;;;7.00;5.00;;;;;-143.39;100.00;63593.47;4920149;28;45388;-87
2021/07/07 07:05:24;;;;;;;;;8.75;6.00;;;;;-143.39;100.00;63593.47;4916347;28;45369;-86
2021/07/07 07:07:49;;;;;;;;;7.00;6.50;;;;;-143.39;100.00;63593.47;4913206;28;45461;-86
2021/07/07 07:10:25;;;;;;;;;6.25;4.50;;;;;-143.39;100.00;63593.47;4934226;28;45482;-87
2021/07/07 07:13:11;;;;;;;;;7.75;6.00;;;;;-143.39;100.00;63593.47;4916899;28;47050;-85
2021/07/07 07:15:46;;;;;;;;;;;;;;;;;;;;;
2021/07/07 07:18:30;;;;;;;;;8.25;5.50;;;;;-143.39;100.00;63593.47;4927423;28;68903;-86
2021/07/07 07:20:58;;;;;;;;;6.00;5.00;;;;;-143.39;100.00;63593.47;4914253;28;45542;-86
2021/07/07 07:23:37;;;;;;;;;;;;;;;;;;;;;
2021/07/07 07:26:02;;;;;;;;;5.75;2.25;;;;;-143.39;100.00;63593.47;4911714;28;73037;-86
2021/07/07 07:28:28;;;;;;;;;5.75;4.50;;;;;-143.39;100.00;63593.47;4908464;28;45456;-86
2021/07/07 07:30:58;;;;;;;;;4.00;4.00;;;;;-143.39;100.00;63593.47;4931740;28;45477;-82
2021/07/07 07:33:24;;;;;;;;;5.25;4.00;;;;;-143.39;100.00;63593.47;4909685;28;47128;-84
2021/07/07 07:35:49;;;;;;;;;5.75;5.50;;;;;-143.39;100.00;63593.47;4919602;28;45432;-84
2021/07/07 07:38:18;;;;;;;;;5.25;4.25;;;;;-143.39;100.00;63593.47;4912472;28;45253;-85
2021/07/07 07:40:48;;;;;;;;;5.50;5.25;;;;;-143.39;100.00;63593.47;4927063;28;45583;-85
2021/07/07 07:43:13;;;;;;;;;4.00;4.00;;;;;-143.39;100.00;63593.47;4929724;28;45607;-85
2021/07/07 07:45:39;;;;;;;;;4.50;4.50;;;;;-143.39;100.00;63593.47;4927814;28;45239;-83
2021/07/07 07:48:06;;;;;;;;;5.25;4.50;;;;;-143.39;100.00;63593.47;4923990;28;45470;-83
2021/07/07 07:50:32;;;;;;;;;5.00;4.75;;;;;-143.39;100.00;63593.47;4932083;28;45249;-84
2021/07/07 07:53:00;;;;;;;;;8.00;6.00;;;;;-143.39;100.00;63593.47;4908087;28;47030;-84
2021/07/07 07:55:38;;;;;;;;;6.75;5.25;;;;;-143.39;100.00;63593.47;4926768;28;45684;-86
2021/07/07 10:05:20;;;;;;;;;3.00;2.25;;;;;-143.39;100.00;63593.47;5054190;23;46831;-85
2021/07/07 10:07:58;;;;;;;;;4.25;2.50;;;;;-143.39;100.00;63593.47;4946384;28;44838;-86
2021/07/07 10:10:29;;;;;;;;;7.75;4.50;;;;;-143.39;100.00;63593.47;4909271;28;45548;-85
2021/07/07 10:12:55;;;;;;;;;4.25;4.00;;;;;-143.39;100.00;63593.47;4896918;29;46349;-83
2021/07/07 10:15:20;;;;;;;;;4.50;4.00;;;;;-143.39;100.00;63593.47;4920661;28;45449;-83
2021/07/07 10:17:51;;;;;;;;;5.00;3.00;;;;;-143.39;100.00;63593.47;4935591;28;45366;-83
2021/07/07 10:20:17;;;;;;;;;3.75;3.75;;;;;-143.39;100.00;63593.47;4927912;28;45202;-84
2021/07/07 10:22:43;;;;;;;;;5.50;5.00;;;;;-143.39;100.00;63593.47;4921932;28;45457;-81
2021/07/07 10:25:13;;;;;;;;;9.00;5.00;;;;;-143.39;100.00;63593.47;4908348;28;45364;-83
2021/07/07 10:27:40;;;;;;;;;5.00;3.50;;;;;-143.39;100.00;63593.47;4931425;28;45480;-82
2021/07/07 10:30:07;;;;;;;;;4.00;4.00;;;;;-143.39;100.00;63593.47;4933176;28;45348;-82
2021/07/07 10:32:32;;;;;;;;;5.50;4.25;;;;;-143.39;100.00;63593.47;4924556;28;45435;-82
2021/07/07 10:35:10;;;;;;;;;5.75;4.25;;;;;-143.39;100.00;63593.47;4907277;28;45296;-83
2021/07/07 10:37:37;;;;;;;;;4.00;3.75;;;;;-143.39;100.00;63593.47;4934992;28;45408;-83
2021/07/07 10:40:25;;;;;;;;;5.00;5.00;;;;;-143.39;100.00;63593.47;4925808;28;45419;-83
2021/07/07 10:42:51;;;;;;;;;5.75;4.75;;;;;-143.39;100.00;63593.47;4925217;28;46150;-82
2021/07/07 10:45:33;;;;;;;;;4.25;4.25;;;;;-143.39;100.00;63593.47;4925406;28;45213;-83
2021/07/07 10:48:25;;;;;;;;;3.00;3.00;;;;;-143.39;100.00;63593.47;4925667;28;45435;-83
2021/07/07 10:50:55;;;;;;;;;4.50;3.50;;;;;-143.39;100.00;63593.47;4908592;28;45443;-83
2021/07/07 10:53:28;;;;;;;;;4.00;4.00;;;;;-143.39;100.00;63593.47;4926375;28;45614;-83
2021/07/07 10:55:54;;;;;;;;;4.75;4.00;;;;;-143.39;100.00;63593.47;4927248;28;45414;-83
2021/07/07 10:58:23;;;;;;;;;3.75;3.75;;;;;-143.39;100.00;63593.47;4928972;28;45436;-83
2021/07/07 11:00:49;;;;;;;;;4.50;4.00;;;;;-143.39;100.00;63593.47;4926825;28;45225;-83
2021/07/07 11:03:42;;;;;;;;;4.50;3.00;;;;;-143.39;100.00;63593.47;4938749;28;45290;-83
2021/07/07 11:06:23;;;;;;;;;5.00;3.75;;;;;-143.39;100.00;63593.47;4917191;28;45411;-84
2021/07/07 11:09:04;;;;;;;;;6.00;6.00;;;;;-143.39;100.00;63593.47;4925340;28;45465;-83
2021/07/07 11:11:29;;;;;;;;;1.75;1.50;;;;;-143.39;100.00;63593.47;4896250;28;45794;-83
2021/07/07 11:13:55;;;;;;;;;4.75;4.25;;;;;-143.39;100.00;63593.47;4925741;28;45464;-82
2021/07/07 11:16:22;;;;;;;;;3.00;3.00;;;;;-143.39;100.00;63593.47;4924108;28;45618;-83
2021/07/07 11:18:49;;;;;;;;;3.00;3.00;;;;;-143.39;100.00;63593.47;4931214;28;45366;-83
2021/07/07 11:21:15;;;;;;;;;5.25;4.00;;;;;-143.39;100.00;63593.47;4929702;28;45261;-82
2021/07/07 11:23:44;;;;;;;;;4.00;4.00;;;;;-143.39;100.00;63593.47;4909021;28;46406;-82
2021/07/07 11:26:11;;;;;;;;;3.75;3.75;;;;;-143.39;100.00;63593.47;4923421;28;45498;-83
2021/07/07 11:28:37;;;;;;;;;3.25;3.00;;;;;-143.39;100.00;63593.47;4912700;28;45328;-82
2021/07/07 11:31:02;;;;;;;;;5.75;3.50;;;;;-143.39;100.00;63593.47;4905606;28;45462;-83
2021/07/07 11:33:28;;;;;;;;;5.75;5.00;;;;;-143.39;100.00;63593.47;4905762;28;47044;-82
2021/07/07 11:35:54;;;;;;;;;7.50;6.50;;;;;-143.39;100.00;63593.47;4921232;28;45754;-82
2021/07/07 11:38:27;;;;;;;;;5.75;4.00;;;;;-143.39;100.00;63593.47;4931495;28;45368;-82
2021/07/07 11:40:54;;;;;;;;;6.00;6.00;;;;;-143.39;100.00;63593.47;4925744;28;45356;-82
2021/07/07 11:43:29;;;;;;;;;5.75;5.50;;;;;-143.39;100.00;63593.47;4907181;28;47210;-82
2021/07/07 11:46:00;;;;;;;;;6.25;6.00;;;;;-143.39;100.00;63593.47;4923754;28;45496;-82
2021/07/07 11:48:38;;;;;;;;;5.50;5.00;;;;;-143.39;100.00;63593.47;4911150;28;45478;-81
2021/07/07 11:51:06;;;;;;;;;6.50;4.50;;;;;-143.39;100.00;63593.47;4913555;28;45695;-81
2021/07/07 11:53:34;;;;;;;;;7.00;5.00;;;;;-143.39;100.00;63593.47;4924451;28;46328;-81
2021/07/07 11:56:09;;;;;;;;;5.75;3.50;;;;;-143.39;100.00;63593.47;4923509;28;45257;-81
2021/07/07 11:58:44;;;;;;;;;5.00;4.00;;;;;-143.39;100.00;63593.47;4920104;28;45535;-81
2021/07/07 12:01:14;;;;;;;;;4.50;4.50;;;;;-143.39;100.00;63593.47;4915356;28;45211;-82
2021/07/07 12:03:40;;;;;;;;;7.00;4.00;;;;;-143.39;100.00;63593.47;4925674;28;48161;-82
2021/07/07 12:06:12;;;;;;;;;5.25;4.00;;;;;-143.39;100.00;63593.47;4929686;28;45459;-82
2021/07/07 12:08:40;;;;;;;;;5.25;5.00;;;;;-143.39;100.00;63593.47;4930587;28;45442;-81
2021/07/07 12:11:43;;;;;;;;;4.75;4.75;;;;;-143.39;100.00;63593.47;4917500;28;45514;-81
2021/07/07 12:14:08;;;;;;;;;5.00;5.00;;;;;-143.39;100.00;63593.47;4918156;28;45363;-81
2021/07/07 12:16:40;;;;;;;;;4.50;4.00;;;;;-143.39;100.00;63593.47;4925467;28;45466;-87
2021/07/07 12:19:10;;;;;;;;;8.00;5.75;;;;;-143.39;100.00;63593.47;4904541;23;45477;-84
2021/07/07 12:21:48;;;;;;;;;8.00;5.50;;;;;-143.39;100.00;63593.47;4894958;29;45537;-82
2021/07/07 12:24:18;;;;;;;;;8.50;6.25;;;;;-143.39;100.00;63593.47;4887078;29;46316;-82
2021/07/07 12:26:47;;;;;;;;;9.50;9.50;;;;;-143.39;100.00;63593.47;4885658;29;45326;-82
2021/07/07 12:29:17;;;;;;;;;7.50;7.50;;;;;-143.39;100.00;63593.47;4860175;29;45852;-80
2021/07/07 12:31:44;;;;;;;;;6.25;6.00;;;;;-143.39;100.00;63593.47;4867131;29;45254;-82
2021/07/07 12:34:12;;;;;;;;;6.25;6.25;;;;;-143.39;100.00;63593.47;4866052;29;45814;-81
2021/07/07 12:36:39;;;;;;;;;8.75;4.00;;;;;-143.39;100.00;63593.47;4866415;29;45899;-81
2021/07/07 12:39:15;;;;;;;;;5.25;5.25;;;;;-143.39;100.00;63593.47;4849684;29;45647;-82
2021/07/07 12:41:46;;;;;;;;;9.00;7.25;;;;;-143.39;100.00;63593.47;4866460;29;45491;-84
2021/07/07 12:44:23;;;;;;;;;6.25;5.00;;;;;-143.39;100.00;63593.47;4849052;29;48175;-82
2021/07/07 12:47:08;;;;;;;;;6.00;6.00;;;;;-143.39;100.00;63593.47;4851008;29;45595;-81
2021/07/07 12:49:51;;;;;;;;;7.00;5.00;;;;;-143.39;100.00;63593.47;4851302;29;45509;-79
2021/07/07 12:52:29;;;;;;;;;5.25;5.25;;;;;-143.39;100.00;63593.47;4867952;29;45455;-84
2021/07/07 12:55:01;;;;;;;;;6.25;3.25;;;;;-143.39;100.00;63593.47;4865826;29;45414;-81
2021/07/07 12:57:42;;;;;;;;;5.00;5.00;;;;;-143.39;100.00;63593.47;4865155;29;45539;-80
2021/07/07 13:00:10;;;;;;;;;5.00;5.00;;;;;-143.39;100.00;63593.47;4865170;29;45180;-82
2021/07/07 13:02:52;;;;;;;;;6.00;4.50;;;;;-143.39;100.00;63593.47;4853977;29;45590;-81
2021/07/07 13:05:19;;;;;;;;;5.75;3.50;;;;;-143.39;100.00;63593.47;4871518;29;46159;-80
2021/07/07 13:07:44;;;;;;;;;4.75;4.00;;;;;-143.39;100.00;63593.47;4871802;29;45154;-79
2021/07/07 13:10:10;;;;;;;;;6.00;4.00;;;;;-143.39;100.00;63593.47;4869547;29;45851;-79
2021/07/07 13:12:35;;;;;;;;;5.00;5.00;;;;;-143.39;100.00;63593.47;4869055;29;45365;-78
2021/07/07 13:15:01;;;;;;;;;4.75;4.00;;;;;-143.39;100.00;63593.47;4867813;29;45928;-77
2021/07/07 13:17:26;;;;;;;;;5.50;5.50;;;;;-143.39;100.00;63593.47;4872391;29;45575;-79
2021/07/07 13:20:02;;;;;;;;;4.00;4.00;;;;;-143.39;100.00;63593.47;4887735;29;45495;-78
2021/07/07 13:22:27;;;;;;;;;4.00;3.00;;;;;-143.39;100.00;63593.47;4888373;29;45358;-78
2021/07/07 13:24:53;;;;;;;;;3.50;3.50;;;;;-143.39;100.00;63593.47;4874493;29;47165;-79
2021/07/07 13:27:19;;;;;;;;;5.00;3.00;;;;;-143.39;100.00;63593.47;4889528;29;45834;-79
2021/07/07 13:29:50;;;;;;;;;4.00;3.25;;;;;-143.39;100.00;63593.47;4888604;29;45310;-79
2021/07/07 13:32:16;;;;;;;;;3.25;3.00;;;;;-143.39;100.00;63593.47;4871258;29;45392;-80
2021/07/07 13:34:45;;;;;;;;;4.00;4.00;;;;;-143.39;100.00;63593.47;4888320;29;45506;-79
2021/07/07 13:37:14;;;;;;;;;3.00;3.00;;;;;-143.39;100.00;63593.47;4894493;29;45311;-79
2021/07/07 13:39:40;;;;;;;;;3.00;3.00;;;;;-143.39;100.00;63593.47;4871257;29;45327;-79
2021/07/07 13:42:06;;;;;;;;;5.75;4.00;;;;;-143.39;100.00;63593.47;4877241;29;45694;-79
2021/07/07 13:44:32;;;;;;;;;5.50;4.00;;;;;-143.39;100.00;63593.47;4890368;29;45423;-79
2021/07/07 13:46:57;;;;;;;;;3.75;3.00;;;;;-143.39;100.00;63593.47;4890891;29;45631;-78
2021/07/07 13:49:22;;;;;;;;;7.00;5.00;;;;;-143.39;100.00;63593.47;4873841;29;45395;-79
2021/07/07 13:51:48;;;;;;;;;6.50;5.00;;;;;-143.39;100.00;63593.47;4889338;29;45361;-79
2021/07/07 13:54:13;;;;;;;;;4.50;3.50;;;;;-143.39;100.00;63593.47;4890985;29;45367;-79
2021/07/07 13:56:39;;;;;;;;;4.25;3.00;;;;;-143.39;100.00;63593.47;4880752;29;45407;-79
2021/07/07 13:59:04;;;;;;;;;3.00;3.00;;;;;-143.39;100.00;63593.47;4888839;29;45615;-79
2021/07/07 14:01:29;;;;;;;;;4.25;4.25;;;;;-143.39;100.00;63593.47;4889647;29;45356;-79
2021/07/07 14:03:55;;;;;;;;;2.00;2.00;;;;;-143.39;100.00;63593.47;4887227;29;45386;-79
2021/07/07 14:06:21;;;;;;;;;2.25;2.25;;;;;-143.39;100.00;63593.47;4888153;29;45230;-79
2021/07/07 14:08:46;;;;;;;;;3.00;3.00;;;;;-143.39;100.00;63593.47;4870975;29;45183;-79
2021/07/07 14:11:11;;;;;;;;;6.75;2.50;;;;;-143.39;100.00;63593.47;4888024;29;45448;-82
2021/07/07 14:13:37;;;;;;;;;3.00;3.00;;;;;-143.39;100.00;63593.47;4887988;29;46174;-81
2021/07/07 14:16:03;;;;;;;;;2.00;2.00;;;;;-143.39;100.00;63593.47;4870285;29;45384;-81
2021/07/07 14:18:30;;;;;;;;;4.00;2.00;;;;;-143.39;100.00;63593.47;4869163;29;45259;-80
2021/07/07 14:20:55;;;;;;;;;4.00;2.75;;;;;-143.39;100.00;63593.47;4893808;29;45407;-81